Aeroporto :
LOGIN :

Iscrizione | Disclaimer

   EN    FR    IT 

 










Sommario :    VFR   VFR Marginale   IFR   IFR Intensivo   IFR Molto Intensivo
Visibilità : 
Base nubi : 
>= 8 km
>= 3000ft
5 / 8 km
1000 / 3000 ft
1500m / 5 km
500 / 1000 ft
800 / 1500m
200 / 500 ft
< 800m
< 200 ft
Simboli :   Temporali  Nebbia  Neve Forte  Precipitazioni Forti  Vento > 20 kt
SIGMETs :   Varie  Temporali  Ghiacco  Turbolenza  Onda orograficha  Ceneri Vulcaniche






- Altitudine del aeroporto : -15 ft
- Codice IATA : RTM


EHRD - Rotterdam Zestienhoven

ULTIMO METAR :
  • 131625Z AUTO 31003KT 250V360 9999 NCD 23/11 Q1026 NOSIG

METARs OBSOLETI :
  • 131555Z AUTO VRB02KT 9999 NCD 22/11 Q1026 NOSIG
  • 131525Z AUTO 27004KT 210V020 9999 NCD 22/11 Q1026 NOSIG
  • 131455Z AUTO VRB02KT 9999 NCD 22/10 Q1026 NOSIG
  • 131425Z AUTO VRB03KT 9999 NCD 22/12 Q1027 NOSIG
  • 131355Z AUTO 33005KT 270V030 9999 NCD 22/11 Q1027 NOSIG

TAF TAF EHRD
Valido dal 13 a 12 ore il 14 a 18 ore UTC


131118Z 1312/1418 30005KT CAVOK



MetMap, La meteo Aeronautica in un colpo d'occhio ! - Copyright ORBIFLY Dicembre 2007 - Disclaimer

ORBIFLY MET'MAP TEAM :

Programmazione e sviluppo : Alexandra Zaïnal
Concezione : Baudouin d'Aumeries
Aiuto per la programmazione : Marc-Olivier Méhu
Supporto tecnico e logistico : Manuel Goepfert
Aiuto per la traduzione : Arnaldo La Scala

Contatto : metmap@orbifly.com




FONTI E CREDITI :

   NOAA